createdAt,value
2023-07-03T00:09:14.952Z,3.15
2023-07-03T00:11:41.734Z,3.22
2023-07-03T00:14:08.328Z,3.42
2023-07-03T00:16:34.891Z,4.10
2023-07-03T00:19:01.755Z,3.53
2023-07-03T00:21:28.587Z,3.45
2023-07-03T00:23:55.522Z,3.90
2023-07-03T00:26:22.192Z,4.03
2023-07-03T00:28:49.333Z,3.42
2023-07-03T00:31:16.247Z,3.53
2023-07-03T00:33:43.024Z,3.60
2023-07-03T00:36:11.144Z,3.80
2023-07-03T00:38:38.113Z,3.20
2023-07-03T00:41:05.509Z,3.47
2023-07-03T00:43:34.289Z,3.97
2023-07-03T00:46:02.353Z,3.33
2023-07-03T00:48:32.464Z,4.10
2023-07-03T00:50:59.717Z,3.53
2023-07-03T00:53:26.592Z,3.55
2023-07-03T00:55:53.445Z,3.88
2023-07-03T00:58:20.854Z,3.90
2023-07-03T01:01:01.209Z,3.53
2023-07-03T01:03:41.785Z,4.20
2023-07-03T01:06:20.642Z,4.32
2023-07-03T01:08:56.082Z,4.05
2023-07-03T01:13:53.315Z,3.70
2023-07-03T01:16:21.286Z,3.88
2023-07-03T01:18:50.506Z,3.33
2023-07-03T01:21:23.821Z,3.88
2023-07-03T01:24:06.626Z,3.83
2023-07-03T01:26:35.649Z,4.18
2023-07-03T01:29:03.481Z,4.03
2023-07-03T01:31:32.979Z,4.93
2023-07-03T01:34:01.689Z,4.22
2023-07-03T01:36:29.676Z,3.88
2023-07-03T01:39:02.337Z,4.35
2023-07-03T01:41:31.036Z,4.97
2023-07-03T01:43:58.874Z,3.83
2023-07-03T01:46:25.878Z,5.07
2023-07-03T01:48:52.955Z,4.03
2023-07-03T01:51:36.015Z,4.20
2023-07-03T01:54:15.217Z,3.80
2023-07-03T01:56:45.403Z,4.45
2023-07-03T01:59:14.750Z,3.85
2023-07-03T02:01:53.949Z,4.63
2023-07-03T02:04:27.227Z,4.43
2023-07-03T02:06:56.499Z,4.80
2023-07-03T02:09:26.632Z,5.10
2023-07-03T02:11:57.323Z,5.43
2023-07-03T02:14:25.337Z,4.88
2023-07-03T02:16:55.997Z,5.85
2023-07-03T02:19:30.049Z,5.00
2023-07-03T02:21:57.618Z,5.00
2023-07-03T02:24:24.374Z,4.57
2023-07-03T02:26:52.293Z,4.72
2023-07-03T02:29:19.699Z,4.85
2023-07-03T02:31:47.072Z,4.22
2023-07-03T02:34:16.113Z,4.80
2023-07-03T02:36:43.463Z,4.88
2023-07-03T02:39:10.698Z,5.40
2023-07-03T02:41:37.850Z,5.28
2023-07-03T02:44:05.100Z,4.63
2023-07-03T02:46:37.200Z,5.15
2023-07-03T02:49:06.533Z,4.93
2023-07-03T02:51:35.595Z,4.63
2023-07-03T02:56:33.897Z,4.07
2023-07-03T02:59:01.323Z,5.03
2023-07-03T03:01:32.464Z,4.43
2023-07-03T03:04:00.885Z,5.53
2023-07-03T03:06:28.569Z,4.78
2023-07-03T03:08:55.482Z,5.43
2023-07-03T03:11:22.633Z,4.25
2023-07-03T03:13:53.491Z,5.53
2023-07-03T03:16:20.388Z,5.68
2023-07-03T03:18:48.668Z,4.97
2023-07-03T03:21:16.595Z,5.28
2023-07-03T03:23:46.047Z,5.03
2023-07-03T03:26:13.149Z,4.60
2023-07-03T03:28:40.068Z,5.20
2023-07-03T03:31:07.913Z,4.97
2023-07-03T03:33:39.616Z,5.82
2023-07-03T03:36:06.614Z,4.70
2023-07-03T03:38:33.335Z,5.10
2023-07-03T03:41:06.868Z,5.43
2023-07-03T03:43:38.996Z,6.15
2023-07-03T03:46:06.737Z,5.50
2023-07-03T03:48:36.668Z,5.32
2023-07-03T03:51:05.124Z,5.40
2023-07-03T03:53:34.229Z,5.28
2023-07-03T03:56:01.141Z,5.45
2023-07-03T03:58:30.530Z,6.47
2023-07-03T04:00:57.709Z,5.35
2023-07-03T04:03:24.395Z,5.20
2023-07-03T04:05:51.365Z,5.45
2023-07-03T04:08:18.330Z,5.32
2023-07-03T04:10:45.189Z,4.93
2023-07-03T04:13:12.768Z,5.60
2023-07-03T04:15:57.757Z,5.28
2023-07-03T04:18:25.352Z,5.63
2023-07-03T04:20:52.744Z,6.13
2023-07-03T04:23:19.767Z,5.10
2023-07-03T04:25:46.697Z,5.22
2023-07-03T04:28:14.356Z,6.45
2023-07-03T04:30:41.108Z,5.97
2023-07-03T04:33:07.760Z,5.95
2023-07-03T04:35:35.300Z,5.65
2023-07-03T04:38:04.552Z,5.38
2023-07-03T04:40:31.876Z,4.82
2023-07-03T04:42:58.766Z,5.35
2023-07-03T04:45:27.232Z,5.57
2023-07-03T04:47:55.121Z,5.28
2023-07-03T04:50:26.550Z,5.43
2023-07-03T04:52:56.781Z,5.78
2023-07-03T04:55:25.656Z,5.57
2023-07-03T04:57:52.588Z,5.13
2023-07-03T05:00:20.655Z,5.65
2023-07-03T05:02:49.097Z,5.25
2023-07-03T05:05:21.011Z,5.57
2023-07-03T05:07:47.946Z,5.43
2023-07-03T05:10:16.818Z,5.70
2023-07-03T05:12:46.685Z,5.53
2023-07-03T05:15:18.511Z,4.60
2023-07-03T05:17:50.430Z,5.47
2023-07-03T05:20:27.038Z,4.35
2023-07-03T05:22:55.076Z,5.13
2023-07-03T05:25:23.466Z,4.85
2023-07-03T05:27:50.322Z,5.38
2023-07-03T05:30:17.375Z,4.95
2023-07-03T05:32:44.387Z,4.78
2023-07-03T05:35:17.228Z,5.03
2023-07-03T05:37:53.217Z,5.90
2023-07-03T05:40:21.242Z,5.03
2023-07-03T05:42:48.297Z,4.72
2023-07-03T05:45:15.929Z,5.13
2023-07-03T05:47:45.381Z,4.80
2023-07-03T05:50:12.556Z,5.07
2023-07-03T05:52:41.803Z,4.53
2023-07-03T05:55:12.640Z,4.72
2023-07-03T05:57:39.837Z,5.30
2023-07-03T06:00:14.208Z,5.07
2023-07-03T06:02:47.670Z,5.22
2023-07-03T06:05:17.667Z,5.05
2023-07-03T06:07:44.855Z,4.82
2023-07-03T06:10:14.392Z,4.93
2023-07-03T06:12:42.871Z,4.35
2023-07-03T06:15:10.883Z,4.40
2023-07-03T06:17:40.036Z,4.13
2023-07-03T06:20:08.586Z,4.80
2023-07-03T06:22:35.474Z,4.53
2023-07-03T06:25:07.538Z,4.15
2023-07-03T06:27:39.380Z,5.68
2023-07-03T06:30:08.502Z,5.05
2023-07-03T06:32:43.061Z,5.05
2023-07-03T06:35:10.854Z,4.47
2023-07-03T06:37:40.568Z,4.30
2023-07-03T06:40:14.390Z,3.55
2023-07-03T06:42:53.606Z,4.07
2023-07-03T06:45:20.867Z,4.20
2023-07-03T06:47:47.730Z,4.63
2023-07-03T06:50:14.438Z,4.32
2023-07-03T06:52:42.703Z,4.13
2023-07-03T06:55:09.896Z,4.10
2023-07-03T06:57:54.415Z,4.40
2023-07-03T07:00:21.120Z,3.92
2023-07-03T07:02:47.928Z,3.83
2023-07-03T07:05:14.795Z,4.32
2023-07-03T07:07:41.470Z,3.95
2023-07-03T07:10:08.785Z,3.97
2023-07-03T07:12:35.970Z,3.90
2023-07-03T07:15:03.260Z,4.20
2023-07-03T07:17:45.839Z,4.40
2023-07-03T07:20:17.070Z,3.85
2023-07-03T07:22:44.268Z,4.38
2023-07-03T07:25:10.933Z,4.15
2023-07-03T07:27:44.292Z,3.40
2023-07-03T07:58:39.945Z,3.28
2023-07-03T08:33:36.863Z,3.45
2023-07-03T09:25:44.339Z,4.25
2023-07-03T09:36:01.130Z,4.50
2023-07-03T09:41:39.722Z,4.20
2023-07-03T09:53:48.998Z,3.75
2023-07-03T09:59:21.588Z,3.38
2023-07-03T10:13:12.861Z,3.20
2023-07-03T10:15:42.180Z,2.80
2023-07-03T10:18:21.446Z,2.45
2023-07-03T10:20:51.754Z,2.85
2023-07-03T10:23:26.451Z,2.80
2023-07-03T10:25:58.576Z,3.35
2023-07-03T10:28:30.487Z,2.40
2023-07-03T10:31:00.805Z,2.50
2023-07-03T10:33:33.754Z,2.70
2023-07-03T10:36:05.813Z,3.05
2023-07-03T10:38:56.226Z,2.45
2023-07-03T10:41:51.838Z,2.38
2023-07-03T10:44:25.319Z,2.00
2023-07-03T10:47:18.720Z,2.42
2023-07-03T10:49:47.671Z,2.40
2023-07-03T10:52:59.518Z,2.50
2023-07-03T10:55:40.743Z,2.55
2023-07-03T10:58:34.700Z,2.47
2023-07-03T11:01:13.112Z,2.60
2023-07-03T11:03:47.652Z,2.20
2023-07-03T11:06:44.732Z,2.85
2023-07-03T11:09:30.596Z,2.55
2023-07-03T11:12:06.719Z,3.17
2023-07-03T11:15:01.223Z,2.15
2023-07-03T11:23:35.728Z,2.38
2023-07-03T11:28:41.834Z,2.78
2023-07-03T11:36:51.577Z,2.75
2023-07-03T11:44:48.297Z,2.92
2023-07-03T11:47:28.668Z,2.67
2023-07-03T11:50:07.173Z,2.80
2023-07-03T11:52:40.589Z,2.40
2023-07-03T11:55:20.163Z,2.70
2023-07-03T11:58:04.443Z,2.63
2023-07-03T12:00:36.980Z,2.55
2023-07-03T12:26:50.163Z,2.83
2023-07-03T13:05:21.741Z,1.70
2023-07-03T13:07:51.796Z,1.88
2023-07-03T13:10:23.440Z,1.75
2023-07-03T13:13:27.661Z,1.70
2023-07-03T13:15:55.432Z,2.42
2023-07-03T13:25:54.954Z,1.75
2023-07-03T13:28:31.001Z,2.00
2023-07-03T13:31:17.674Z,1.63
2023-07-03T13:34:20.432Z,1.42
2023-07-03T13:37:01.608Z,2.05
2023-07-03T13:39:36.829Z,1.90
2023-07-03T13:42:11.765Z,1.90
2023-07-03T13:50:44.481Z,2.20
2023-07-03T14:08:34.455Z,2.00
2023-07-03T14:11:05.045Z,1.48
2023-07-03T14:13:35.097Z,1.88
2023-07-03T14:18:43.922Z,2.28
2023-07-03T14:21:19.896Z,1.92
2023-07-03T14:23:50.111Z,2.08
2023-07-03T14:26:20.609Z,2.78
2023-07-03T14:28:51.461Z,1.98
2023-07-03T15:06:43.240Z,2.50
2023-07-03T15:09:30.818Z,2.70
2023-07-03T15:12:17.026Z,2.30
2023-07-03T15:14:45.633Z,2.58
2023-07-03T15:20:30.813Z,2.30
2023-07-03T15:23:05.157Z,3.00
2023-07-03T15:25:33.952Z,2.35
2023-07-03T15:28:01.365Z,2.85
2023-07-03T15:30:31.892Z,2.95
2023-07-03T15:32:59.930Z,2.50
2023-07-03T15:35:29.462Z,2.80
2023-07-03T15:37:59.268Z,3.20
2023-07-03T18:09:30.229Z,3.83
2023-07-03T18:11:58.026Z,2.63
2023-07-03T18:14:33.919Z,2.70
2023-07-03T18:17:08.904Z,3.20
2023-07-03T18:19:39.586Z,2.85
2023-07-03T18:22:07.117Z,2.90
2023-07-03T18:24:38.599Z,2.85
2023-07-03T18:27:08.611Z,2.72
2023-07-03T18:29:35.664Z,2.60
2023-07-03T18:32:37.416Z,3.00
2023-07-03T18:35:19.174Z,2.75
2023-07-03T18:37:46.275Z,3.13
2023-07-03T18:40:35.620Z,2.55
2023-07-03T19:29:16.334Z,2.15
2023-07-03T19:31:44.120Z,2.60
2023-07-03T19:34:11.010Z,2.08
2023-07-03T19:36:45.642Z,3.55
2023-07-03T19:39:14.526Z,2.60
2023-07-03T19:41:44.176Z,2.58
2023-07-03T19:44:11.616Z,2.58
2023-07-03T19:46:42.424Z,2.90
2023-07-03T19:49:09.631Z,2.53
2023-07-03T19:51:40.129Z,2.45
2023-07-03T19:54:07.370Z,2.70
2023-07-03T19:56:37.076Z,2.65
2023-07-03T19:59:14.192Z,2.08
2023-07-03T20:01:42.085Z,2.40
2023-07-03T20:04:17.720Z,2.42
2023-07-03T20:06:48.326Z,2.40
2023-07-03T20:09:21.086Z,2.63
2023-07-03T20:14:33.220Z,2.83
2023-07-03T20:17:01.664Z,2.42
2023-07-03T20:20:01.881Z,2.30
2023-07-03T20:22:41.029Z,2.00
2023-07-03T21:36:49.005Z,2.03
2023-07-03T21:39:16.028Z,2.30
2023-07-03T21:41:43.204Z,2.40
2023-07-03T21:44:17.823Z,2.42
2023-07-03T21:46:47.742Z,2.47
2023-07-03T21:49:17.005Z,3.15
2023-07-03T21:51:44.382Z,3.50
2023-07-03T21:54:11.512Z,2.88
2023-07-03T21:56:39.725Z,3.22
2023-07-03T21:59:06.915Z,3.00
2023-07-03T22:01:39.467Z,3.10
2023-07-03T22:04:08.655Z,3.10
2023-07-03T22:06:36.071Z,3.78
2023-07-03T22:09:03.183Z,3.75
2023-07-03T22:11:30.643Z,4.13
2023-07-03T22:13:57.572Z,3.30
2023-07-03T22:16:24.863Z,3.88
2023-07-03T22:18:51.658Z,3.65
2023-07-03T22:21:21.949Z,3.30
2023-07-03T22:23:50.576Z,3.88
2023-07-03T22:26:17.847Z,3.47
2023-07-03T22:28:46.108Z,3.42
2023-07-03T22:31:12.834Z,3.55
2023-07-03T22:33:40.076Z,3.58
2023-07-03T22:36:10.168Z,3.38
2023-07-03T22:38:37.266Z,4.30
2023-07-03T22:41:04.663Z,3.80
2023-07-03T22:43:31.826Z,3.10
2023-07-03T22:46:06.293Z,4.20
2023-07-03T22:48:33.752Z,3.45
2023-07-03T22:51:02.341Z,3.53
2023-07-03T22:53:29.782Z,3.95
2023-07-03T22:56:02.237Z,3.45
2023-07-03T22:58:34.219Z,3.85
2023-07-03T23:01:10.273Z,3.92
2023-07-03T23:03:39.941Z,4.43
2023-07-03T23:06:07.427Z,3.67
2023-07-03T23:08:34.427Z,3.63
2023-07-03T23:11:03.224Z,3.33
2023-07-03T23:13:31.310Z,3.55
2023-07-03T23:16:07.450Z,3.72
2023-07-03T23:18:37.054Z,3.95
2023-07-03T23:21:08.168Z,3.90
2023-07-03T23:51:22.198Z,3.75
2023-07-03T23:53:50.933Z,4.10
2023-07-03T23:56:20.484Z,4.22
2023-07-03T23:58:49.876Z,4.15
